Time;durP1;ratioP1;P1;durP2;ratioP2;P2;SDS_P1;SDS_P2;PMS_P1;PMS_P2;Temp;Humidity;BMP_temperature;BMP_pressure;BME280_temperature;BME280_humidity;BME280_pressure;Samples;Min_cycle;Max_cycle;Signal;HPM_P1;HPM_P2
2022/11/03 00:01:55;;;;;;;;;;;11.50;99.90;;;;;;6226033;22;20340;-82
2022/11/03 00:04:23;;;;;;;;;;;11.30;99.90;;;;;;6251417;22;19923;-82
2022/11/03 00:06:49;;;;;;;;;;;11.40;99.90;;;;;;6225801;22;19919;-82
2022/11/03 00:09:16;;;;;;;;;;;11.40;99.90;;;;;;6250972;22;19991;-82
2022/11/03 00:11:42;;;;;;;;;;;11.60;99.90;;;;;;6225976;22;19923;-82
2022/11/03 00:14:09;;;;;;;;;;;11.50;99.90;;;;;;6225798;22;20336;-82
2022/11/03 00:16:35;;;;;;;;;;;11.50;99.90;;;;;;6251079;22;19920;-82
2022/11/03 00:19:02;;;;;;;;;;;11.70;99.90;;;;;;6278251;22;19926;-81
2022/11/03 00:21:27;;;;;;;;;;;11.70;99.90;;;;;;6250864;22;19923;-82
2022/11/03 00:23:53;;;;;;;;;;;15.20;99.90;;;;;;6250013;22;19990;-81
2022/11/03 00:26:21;;;;;;;;;;;11.60;99.90;;;;;;6276590;22;19919;-82
2022/11/03 00:28:54;;;;;;;;;;;13.60;99.90;;;;;;6250654;22;20001;-82
2022/11/03 00:31:25;;;;;;;;;;;11.60;99.90;;;;;;6277635;22;19919;-82
2022/11/03 00:33:52;;;;;;;;;;;11.60;99.90;;;;;;6225327;22;19990;-82
2022/11/03 00:36:29;;;;;;;;;;;15.80;99.90;;;;;;6249470;22;19998;-82
2022/11/03 00:38:57;;;;;;;;;;;11.70;99.90;;;;;;6250988;22;19980;-82
2022/11/03 00:41:24;;;;;;;;;;;11.60;99.90;;;;;;6225556;22;19919;-82
2022/11/03 00:43:53;;;;;;;;;;;11.50;99.90;;;;;;6251396;22;19920;-82
2022/11/03 00:46:21;;;;;;;;;;;14.00;99.90;;;;;;6250647;22;19962;-82
2022/11/03 00:48:47;;;;;;;;;;;11.50;99.90;;;;;;6250881;22;19955;-82
2022/11/03 00:51:13;;;;;;;;;;;11.60;99.90;;;;;;6277171;22;20320;-82
2022/11/03 00:53:40;;;;;;;;;;;11.50;99.90;;;;;;6251378;22;19935;-82
2022/11/03 00:56:08;;;;;;;;;;;11.60;99.90;;;;;;6225271;22;19942;-82
2022/11/03 00:58:34;;;;;;;;;;;11.50;99.90;;;;;;6250637;22;19919;-82
2022/11/03 01:01:07;;;;;;;;;;;11.50;99.90;;;;;;6251129;22;20212;-82
2022/11/03 01:03:34;;;;;;;;;;;11.40;99.90;;;;;;6250302;22;19919;-82
2022/11/03 01:08:43;;;;;;;;;;;11.40;99.90;;;;;;6249862;22;19926;-82
2022/11/03 01:13:58;;;;;;;;;;;16.40;99.90;;;;;;6276620;22;19930;-82
2022/11/03 01:16:24;;;;;;;;;;;11.30;99.90;;;;;;6249659;22;19919;-82
2022/11/03 01:18:49;;;;;;;;;;;11.30;99.90;;;;;;6249896;22;19923;-82
2022/11/03 01:21:15;;;;;;;;;;;11.30;99.90;;;;;;6276703;22;19994;-82
2022/11/03 01:23:41;;;;;;;;;;;11.40;99.90;;;;;;6250274;22;19923;-82
2022/11/03 01:26:09;;;;;;;;;;;11.30;99.90;;;;;;6225029;22;19923;-82
2022/11/03 01:28:35;;;;;;;;;;;11.30;99.90;;;;;;6224701;22;19923;-82
2022/11/03 01:31:02;;;;;;;;;;;11.30;99.90;;;;;;6249739;22;19923;-82
2022/11/03 01:33:31;;;;;;;;;;;11.30;99.90;;;;;;6225197;22;19919;-82
2022/11/03 01:35:56;;;;;;;;;;;11.40;99.90;;;;;;6249317;22;19919;-82
2022/11/03 01:38:22;;;;;;;;;;;11.40;99.90;;;;;;6225200;22;19926;-82
2022/11/03 01:40:48;;;;;;;;;;;11.50;99.90;;;;;;6277649;22;19920;-82
2022/11/03 01:43:15;;;;;;;;;;;11.50;99.90;;;;;;6249955;22;19964;-82
2022/11/03 01:45:41;;;;;;;;;;;11.20;99.90;;;;;;6250199;22;19919;-82
2022/11/03 01:48:07;;;;;;;;;;;11.20;99.90;;;;;;6249528;22;19940;-82
2022/11/03 01:50:33;;;;;;;;;;;11.20;99.90;;;;;;6249497;22;19920;-82
2022/11/03 01:52:58;;;;;;;;;;;11.30;99.90;;;;;;6224667;22;19920;-81
2022/11/03 01:55:28;;;;;;;;;;;11.40;99.90;;;;;;6224336;22;20233;-82
2022/11/03 01:57:56;;;;;;;;;;;11.30;99.90;;;;;;6250263;22;19929;-82
2022/11/03 02:00:25;;;;;;;;;;;15.00;99.90;;;;;;6250870;22;19919;-81
2022/11/03 02:02:51;;;;;;;;;;;11.40;99.90;;;;;;6250018;22;19926;-82
2022/11/03 02:05:17;;;;;;;;;;;11.30;99.90;;;;;;6224571;22;19927;-82
2022/11/03 02:07:49;;;;;;;;;;;11.40;99.90;;;;;;6224968;22;19972;-81
2022/11/03 02:10:19;;;;;;;;;;;11.40;99.90;;;;;;6225678;22;19974;-82
2022/11/03 02:12:44;;;;;;;;;;;11.40;99.90;;;;;;6277364;22;19919;-82
2022/11/03 02:15:12;;;;;;;;;;;11.50;99.90;;;;;;6224848;22;20331;-82
2022/11/03 02:17:39;;;;;;;;;;;11.30;99.90;;;;;;6249877;22;20033;-82
2022/11/03 02:20:13;;;;;;;;;;;11.40;99.90;;;;;;6249974;22;19919;-82
2022/11/03 02:22:38;;;;;;;;;;;11.40;99.90;;;;;;6277074;22;19919;-82
2022/11/03 02:25:04;;;;;;;;;;;11.30;99.90;;;;;;6249890;22;20359;-82
2022/11/03 02:27:30;;;;;;;;;;;11.40;99.90;;;;;;6224283;22;19925;-82
2022/11/03 02:29:57;;;;;;;;;;;11.30;99.90;;;;;;6276997;22;20324;-82
2022/11/03 02:32:25;;;;;;;;;;;14.90;99.90;;;;;;6250228;22;20015;-82
2022/11/03 02:34:51;;;;;;;;;;;7.20;99.90;;;;;;6252448;22;20274;-82
2022/11/03 02:37:19;;;;;;;;;;;11.20;99.90;;;;;;6278821;22;19954;-82
2022/11/03 02:39:46;;;;;;;;;;;11.20;99.90;;;;;;6251933;22;19920;-82
2022/11/03 02:42:13;;;;;;;;;;;11.30;99.90;;;;;;6226065;22;19950;-82
2022/11/03 02:44:38;;;;;;;;;;;13.90;99.90;;;;;;6251415;22;19919;-81
2022/11/03 02:47:10;;;;;;;;;;;11.20;99.90;;;;;;6251917;22;20001;-82
2022/11/03 02:49:39;;;;;;;;;;;11.20;99.90;;;;;;6279087;22;19951;-82
2022/11/03 02:52:05;;;;;;;;;;;8.90;99.90;;;;;;6279411;22;19958;-83
2022/11/03 02:54:37;;;;;;;;;;;11.10;99.90;;;;;;6226342;22;19919;-82
2022/11/03 02:57:23;;;;;;;;;;;11.30;99.90;;;;;;6251691;22;19919;-83
2022/11/03 02:59:52;;;;;;;;;;;11.20;99.90;;;;;;6250706;22;19990;-83
2022/11/03 03:02:21;;;;;;;;;;;11.10;99.90;;;;;;6226447;22;19960;-82
2022/11/03 03:04:50;;;;;;;;;;;11.10;99.90;;;;;;6251885;22;19923;-83
2022/11/03 03:07:19;;;;;;;;;;;11.10;99.90;;;;;;6226915;22;19919;-83
2022/11/03 03:09:50;;;;;;;;;;;11.10;99.90;;;;;;6251539;22;19923;-82
2022/11/03 03:12:17;;;;;;;;;;;11.00;99.90;;;;;;6252252;22;19921;-82
2022/11/03 03:14:43;;;;;;;;;;;10.90;99.90;;;;;;6225859;22;19919;-82
2022/11/03 03:17:12;;;;;;;;;;;11.10;99.90;;;;;;6225895;22;19919;-82
2022/11/03 03:19:44;;;;;;;;;;;11.20;99.90;;;;;;6225747;22;19963;-82
2022/11/03 03:22:15;;;;;;;;;;;11.00;99.90;;;;;;6278454;22;19928;-82
2022/11/03 03:24:48;;;;;;;;;;;11.10;99.90;;;;;;6226360;22;19994;-82
2022/11/03 03:27:15;;;;;;;;;;;11.00;99.90;;;;;;6252008;22;19990;-82
2022/11/03 03:29:45;;;;;;;;;;;11.10;99.90;;;;;;6251766;22;19919;-83
2022/11/03 03:32:12;;;;;;;;;;;11.10;99.90;;;;;;6252163;22;19923;-83
2022/11/03 03:34:39;;;;;;;;;;;11.10;99.90;;;;;;6225638;22;19929;-82
2022/11/03 03:37:06;;;;;;;;;;;11.20;99.90;;;;;;6250949;22;19942;-83
2022/11/03 03:39:34;;;;;;;;;;;11.20;99.90;;;;;;6278336;22;19916;-82
2022/11/03 03:42:00;;;;;;;;;;;11.20;99.90;;;;;;6225555;22;19920;-82
2022/11/03 03:44:27;;;;;;;;;;;11.40;99.90;;;;;;6251194;22;19926;-82
2022/11/03 03:47:00;;;;;;;;;;;11.30;99.90;;;;;;6251255;22;20006;-82
2022/11/03 03:49:25;;;;;;;;;;;11.30;99.90;;;;;;6250653;22;20323;-82
2022/11/03 03:51:51;;;;;;;;;;;11.30;99.90;;;;;;6249482;22;19927;-83
2022/11/03 03:54:17;;;;;;;;;;;11.20;99.90;;;;;;6249698;22;19923;-83
2022/11/03 03:56:46;;;;;;;;;;;11.30;99.90;;;;;;6248934;22;19919;-83
2022/11/03 03:59:12;;;;;;;;;;;11.40;99.90;;;;;;6249881;22;19953;-82
2022/11/03 04:01:38;;;;;;;;;;;11.30;99.90;;;;;;6276326;22;20289;-83
2022/11/03 04:04:03;;;;;;;;;;;11.20;99.90;;;;;;6224053;22;19919;-83
2022/11/03 04:06:29;;;;;;;;;;;11.20;99.90;;;;;;6247898;22;19951;-82
2022/11/03 04:08:54;;;;;;;;;;;11.10;99.90;;;;;;6248984;22;20286;-82
2022/11/03 04:22:25;;;;;;;;;;;11.00;99.90;;;;;;6276569;22;20296;-82
2022/11/03 04:24:50;;;;;;;;;;;10.90;99.90;;;;;;6249746;22;19919;-82
2022/11/03 04:27:19;;;;;;;;;;;10.80;99.90;;;;;;6249864;22;19925;-83
2022/11/03 04:29:45;;;;;;;;;;;11.10;99.90;;;;;;6224055;22;19919;-82
2022/11/03 04:32:15;;;;;;;;;;;10.90;99.90;;;;;;6250035;22;19926;-82
2022/11/03 04:34:41;;;;;;;;;;;11.00;99.90;;;;;;6249153;22;19915;-83
2022/11/03 04:37:13;;;;;;;;;;;10.90;99.90;;;;;;6224146;22;19951;-83
2022/11/03 04:39:38;;;;;;;;;;;11.00;99.90;;;;;;6277197;22;19942;-82
2022/11/03 04:42:17;;;;;;;;;;;10.80;99.90;;;;;;6276565;22;19942;-82
2022/11/03 04:44:43;;;;;;;;;;;10.90;99.90;;;;;;6276850;22;19920;-82
2022/11/03 04:47:10;;;;;;;;;;;10.80;99.90;;;;;;6250184;22;19953;-83
2022/11/03 04:49:36;;;;;;;;;;;10.80;99.90;;;;;;6144615;22;1864114;-83
2022/11/03 04:52:10;;;;;;;;;;;10.70;99.90;;;;;;6229251;22;19965;-82
2022/11/03 04:54:35;;;;;;;;;;;10.90;99.90;;;;;;6227788;22;19915;-82
2022/11/03 04:57:07;;;;;;;;;;;10.90;99.90;;;;;;6227942;22;19942;-81
2022/11/03 04:59:33;;;;;;;;;;;10.90;99.90;;;;;;6252149;22;19920;-82
2022/11/03 05:01:58;;;;;;;;;;;11.00;99.90;;;;;;6226700;22;19919;-83
2022/11/03 05:04:24;;;;;;;;;;;10.90;99.90;;;;;;6250725;22;20297;-83
2022/11/03 05:06:51;;;;;;;;;;;11.10;99.90;;;;;;6225029;22;19958;-82
2022/11/03 05:09:19;;;;;;;;;;;10.90;99.90;;;;;;6278184;22;19980;-84
2022/11/03 05:11:45;;;;;;;;;;;10.90;99.90;;;;;;6278114;22;19941;-83
2022/11/03 05:14:26;;;;;;;;;;;10.80;99.90;;;;;;6277986;22;20329;-83
2022/11/03 05:16:58;;;;;;;;;;;10.80;99.90;;;;;;6277701;22;19919;-83
2022/11/03 05:19:26;;;;;;;;;;;10.80;99.90;;;;;;6277584;22;19927;-84
2022/11/03 05:21:53;;;;;;;;;;;10.90;99.90;;;;;;6250781;22;20316;-83
2022/11/03 05:24:20;;;;;;;;;;;11.00;99.90;;;;;;6251565;22;20395;-83
2022/11/03 05:26:46;;;;;;;;;;;10.90;99.90;;;;;;6278387;22;19919;-83
2022/11/03 05:29:16;;;;;;;;;;;10.80;99.90;;;;;;6224578;22;19919;-84
2022/11/03 05:31:42;;;;;;;;;;;10.90;99.90;;;;;;6248346;22;19919;-83
2022/11/03 05:34:17;;;;;;;;;;;10.70;99.90;;;;;;6223766;22;19927;-84
2022/11/03 05:36:48;;;;;;;;;;;10.80;99.90;;;;;;6224412;22;19986;-83
2022/11/03 05:39:34;;;;;;;;;;;10.80;99.90;;;;;;6223595;22;20336;-83
2022/11/03 05:42:18;;;;;;;;;;;10.80;99.90;;;;;;6275926;22;20324;-83
2022/11/03 05:44:47;;;;;;;;;;;10.90;99.90;;;;;;6249689;22;20412;-83
2022/11/03 05:47:25;;;;;;;;;;;10.90;99.90;;;;;;6247442;22;19919;-83
2022/11/03 05:49:53;;;;;;;;;;;10.90;99.90;;;;;;6248340;22;19919;-84
2022/11/03 05:52:24;;;;;;;;;;;10.90;99.90;;;;;;6259349;22;19920;-83
2022/11/03 05:54:51;;;;;;;;;;;11.00;99.90;;;;;;6231640;22;19942;-83
2022/11/03 05:57:17;;;;;;;;;;;10.90;99.90;;;;;;6246906;22;19927;-84
2022/11/03 05:59:44;;;;;;;;;;;10.80;99.90;;;;;;6248492;22;19920;-81
2022/11/03 06:02:31;;;;;;;;;;;10.90;99.90;;;;;;6247693;22;19927;-83
2022/11/03 06:05:01;;;;;;;;;;;11.10;99.90;;;;;;6249819;22;19919;-82
2022/11/03 06:07:28;;;;;;;;;;;11.00;99.90;;;;;;6224305;22;19926;-83
2022/11/03 06:09:58;;;;;;;;;;;11.00;99.90;;;;;;6251381;22;19919;-82
2022/11/03 06:12:24;;;;;;;;;;;11.00;99.90;;;;;;6227102;22;20078;-83
2022/11/03 06:14:50;;;;;;;;;;;11.00;99.90;;;;;;6227391;22;19915;-82
2022/11/03 06:17:26;;;;;;;;;;;10.90;99.90;;;;;;6279324;22;20296;-83
2022/11/03 06:19:53;;;;;;;;;;;11.10;99.90;;;;;;6279388;22;19920;-82
2022/11/03 06:22:21;;;;;;;;;;;11.10;99.90;;;;;;6252102;22;19920;-83
2022/11/03 06:24:46;;;;;;;;;;;11.10;99.90;;;;;;6226579;22;19958;-83
2022/11/03 06:27:17;;;;;;;;;;;11.00;99.90;;;;;;6279290;22;19919;-82
2022/11/03 06:29:46;;;;;;;;;;;11.10;99.90;;;;;;6252566;22;20299;-83
2022/11/03 06:32:12;;;;;;;;;;;11.10;99.90;;;;;;6278850;22;20300;-83
2022/11/03 06:34:42;;;;;;;;;;;11.10;99.90;;;;;;6251744;22;19930;-83
2022/11/03 06:37:26;;;;;;;;;;;11.10;99.90;;;;;;6252028;22;20255;-84
2022/11/03 06:40:10;;;;;;;;;;;11.20;99.90;;;;;;6250802;22;19919;-82
2022/11/03 06:42:37;;;;;;;;;;;13.20;99.90;;;;;;6225921;22;20066;-83
2022/11/03 06:45:29;;;;;;;;;;;14.60;99.90;;;;;;6225122;22;19920;-83
2022/11/03 06:47:57;;;;;;;;;;;11.20;99.90;;;;;;6216612;22;19920;-83
2022/11/03 06:50:23;;;;;;;;;;;11.20;99.90;;;;;;6277000;22;19926;-83
2022/11/03 06:52:49;;;;;;;;;;;11.20;99.90;;;;;;6225016;22;19951;-82
2022/11/03 06:55:20;;;;;;;;;;;11.90;99.90;;;;;;6277584;22;19982;-83
2022/11/03 06:57:47;;;;;;;;;;;11.40;99.90;;;;;;6250754;22;19923;-83
2022/11/03 07:00:21;;;;;;;;;;;11.20;99.90;;;;;;6226214;22;19920;-83
2022/11/03 07:02:49;;;;;;;;;;;11.20;99.90;;;;;;6251148;22;20248;-83
2022/11/03 07:05:22;;;;;;;;;;;11.30;99.90;;;;;;6251664;22;19942;-83
2022/11/03 07:07:47;;;;;;;;;;;11.30;99.90;;;;;;6251220;22;19969;-83
2022/11/03 07:10:13;;;;;;;;;;;11.30;99.90;;;;;;6251272;22;19919;-83
2022/11/03 07:12:40;;;;;;;;;;;11.30;99.90;;;;;;6251187;22;19977;-83
2022/11/03 07:15:15;;;;;;;;;;;13.20;99.90;;;;;;6278633;22;19994;-83
2022/11/03 07:17:40;;;;;;;;;;;11.40;99.90;;;;;;6251676;22;19945;-83
2022/11/03 07:20:12;;;;;;;;;;;11.20;99.90;;;;;;6277505;22;20032;-83
2022/11/03 07:22:40;;;;;;;;;;;12.50;99.90;;;;;;6251686;22;19930;-83
2022/11/03 07:25:12;;;;;;;;;;;11.50;99.90;;;;;;6251069;22;20290;-83
2022/11/03 07:27:38;;;;;;;;;;;11.50;99.90;;;;;;6251776;22;19927;-84
2022/11/03 07:30:07;;;;;;;;;;;11.50;99.90;;;;;;6223643;22;19927;-83
2022/11/03 07:32:33;;;;;;;;;;;11.60;99.90;;;;;;6250496;22;19919;-83
2022/11/03 07:35:03;;;;;;;;;;;14.60;99.90;;;;;;6273270;22;19970;-83
2022/11/03 07:37:29;;;;;;;;;;;11.50;99.90;;;;;;6223170;22;20233;-83
2022/11/03 07:40:00;;;;;;;;;;;11.50;99.90;;;;;;6278306;22;20354;-83
2022/11/03 07:42:27;;;;;;;;;;;15.80;99.90;;;;;;6249799;22;19919;-84
2022/11/03 07:44:54;;;;;;;;;;;14.60;99.90;;;;;;6250930;22;19919;-83
2022/11/03 07:47:26;;;;;;;;;;;12.40;99.90;;;;;;6225095;22;19920;-83
2022/11/03 07:49:53;;;;;;;;;;;11.70;99.90;;;;;;6248661;22;19926;-83
2022/11/03 07:52:22;;;;;;;;;;;9.10;99.90;;;;;;6250334;22;20320;-83
2022/11/03 07:54:48;;;;;;;;;;;13.20;99.90;;;;;;6249896;22;19938;-83
2022/11/03 07:57:40;;;;;;;;;;;13.70;99.90;;;;;;6251200;22;20384;-83
2022/11/03 08:00:06;;;;;;;;;;;11.70;99.90;;;;;;6218450;22;19920;-84
2022/11/03 08:02:42;;;;;;;;;;;11.70;99.90;;;;;;6251025;22;19927;-83
2022/11/03 08:05:07;;;;;;;;;;;11.70;99.90;;;;;;6278070;22;19930;-82
2022/11/03 08:07:33;;;;;;;;;;;11.80;99.90;;;;;;6251557;22;19923;-82
2022/11/03 08:10:06;;;;;;;;;;;11.70;99.90;;;;;;6248043;22;19977;-83
2022/11/03 08:12:34;;;;;;;;;;;11.90;99.90;;;;;;6251861;22;19919;-83
2022/11/03 08:15:00;;;;;;;;;;;13.00;99.90;;;;;;6248163;22;20286;-83
2022/11/03 08:17:25;;;;;;;;;;;13.10;99.90;;;;;;6278059;22;20331;-82
2022/11/03 08:19:51;;;;;;;;;;;15.00;99.90;;;;;;6249501;22;19923;-83
2022/11/03 08:22:18;;;;;;;;;;;11.90;99.90;;;;;;6223858;22;20362;-83
2022/11/03 08:24:47;;;;;;;;;;;12.30;99.90;;;;;;6277575;22;19919;-83
2022/11/03 08:27:12;;;;;;;;;;;11.90;99.90;;;;;;6250124;22;19951;-83
2022/11/03 08:29:41;;;;;;;;;;;14.00;99.90;;;;;;6277484;22;19919;-83
2022/11/03 08:32:06;;;;;;;;;;;14.80;99.90;;;;;;6225541;22;20386;-83
2022/11/03 08:34:32;;;;;;;;;;;15.10;99.90;;;;;;6222798;22;20381;-83
2022/11/03 08:36:58;;;;;;;;;;;13.00;99.90;;;;;;6249579;22;19942;-83
2022/11/03 08:39:30;;;;;;;;;;;12.20;99.90;;;;;;6249975;22;20260;-83
2022/11/03 08:41:58;;;;;;;;;;;15.60;99.90;;;;;;6243605;22;19927;-84
2022/11/03 08:44:24;;;;;;;;;;;10.70;99.90;;;;;;6276670;22;19919;-83
2022/11/03 08:46:52;;;;;;;;;;;15.40;99.90;;;;;;6276930;22;19920;-83
2022/11/03 08:49:22;;;;;;;;;;;12.50;99.90;;;;;;6275396;22;19924;-84
2022/11/03 08:51:48;;;;;;;;;;;12.60;99.90;;;;;;6244434;23;19931;-83
2022/11/03 08:54:18;;;;;;;;;;;12.50;99.90;;;;;;6243505;22;20365;-83
2022/11/03 08:56:45;;;;;;;;;;;12.80;99.90;;;;;;6218479;23;19919;-83
2022/11/03 08:59:10;;;;;;;;;;;12.80;99.90;;;;;;6245219;23;20002;-83
2022/11/03 09:01:36;;;;;;;;;;;15.90;99.90;;;;;;6220283;23;19955;-83
2022/11/03 09:04:03;;;;;;;;;;;13.00;99.90;;;;;;6219580;23;20298;-83
2022/11/03 09:06:29;;;;;;;;;;;13.00;99.90;;;;;;6243837;23;19923;-83
2022/11/03 09:08:57;;;;;;;;;;;16.20;99.90;;;;;;6244903;23;19924;-83
2022/11/03 09:11:23;;;;;;;;;;;13.10;99.90;;;;;;6244723;23;19926;-83
2022/11/03 09:13:48;;;;;;;;;;;15.70;99.90;;;;;;6244934;23;20229;-83
2022/11/03 09:16:15;;;;;;;;;;;15.10;99.90;;;;;;6218962;23;20005;-83
2022/11/03 09:18:44;;;;;;;;;;;13.30;99.90;;;;;;6244259;23;20019;-84
2022/11/03 09:21:12;;;;;;;;;;;16.40;99.90;;;;;;6241790;23;20296;-83
2022/11/03 09:23:38;;;;;;;;;;;16.70;99.90;;;;;;6245051;23;20233;-82
2022/11/03 09:26:05;;;;;;;;;;;16.10;99.90;;;;;;6220426;23;19926;-83
2022/11/03 09:28:31;;;;;;;;;;;13.30;99.90;;;;;;6246745;22;20002;-83
2022/11/03 09:30:56;;;;;;;;;;;13.40;99.90;;;;;;6245336;23;20352;-83
2022/11/03 09:33:22;;;;;;;;;;;13.50;99.90;;;;;;6245515;22;19922;-83
2022/11/03 09:35:47;;;;;;;;;;;16.90;99.90;;;;;;6244365;23;19931;-83
2022/11/03 09:38:13;;;;;;;;;;;15.10;99.90;;;;;;6220162;23;19922;-83
2022/11/03 09:40:43;;;;;;;;;;;13.70;99.90;;;;;;6220840;23;19969;-83
2022/11/03 09:43:09;;;;;;;;;;;13.70;99.90;;;;;;6244836;23;19919;-83
2022/11/03 09:45:35;;;;;;;;;;;14.10;99.90;;;;;;6245414;23;19964;-83
2022/11/03 09:48:02;;;;;;;;;;;14.90;99.90;;;;;;6246704;22;19919;-83
2022/11/03 09:50:30;;;;;;;;;;;14.20;99.90;;;;;;6219249;23;19927;-83
2022/11/03 09:53:02;;;;;;;;;;;15.90;99.90;;;;;;6245911;23;19919;-83
2022/11/03 09:55:27;;;;;;;;;;;12.00;99.90;;;;;;6246270;23;19998;-83
2022/11/03 09:57:54;;;;;;;;;;;16.10;99.90;;;;;;6219599;23;19920;-83
2022/11/03 10:00:22;;;;;;;;;;;17.40;99.90;;;;;;6246670;22;19926;-82
2022/11/03 10:02:51;;;;;;;;;;;14.80;99.90;;;;;;6245717;22;19931;-82
2022/11/03 10:05:27;;;;;;;;;;;17.40;99.90;;;;;;6220400;23;19923;-83
2022/11/03 10:08:04;;;;;;;;;;;16.90;99.90;;;;;;6246868;22;19919;-83
2022/11/03 10:10:30;;;;;;;;;;;14.80;99.90;;;;;;6245540;23;19920;-83
2022/11/03 10:12:56;;;;;;;;;;;15.10;99.90;;;;;;6244883;23;19994;-83
2022/11/03 10:15:23;;;;;;;;;;;17.40;99.90;;;;;;6220078;23;19952;-83
2022/11/03 10:17:49;;;;;;;;;;;17.60;99.90;;;;;;6220079;23;19926;-82
2022/11/03 10:20:16;;;;;;;;;;;15.20;99.90;;;;;;6244971;23;19948;-83
2022/11/03 10:22:43;;;;;;;;;;;15.20;99.90;;;;;;6245013;23;19970;-83
2022/11/03 10:25:28;;;;;;;;;;;17.90;99.90;;;;;;6218884;23;19926;-83
2022/11/03 10:28:11;;;;;;;;;;;15.20;99.90;;;;;;6218986;23;19915;-83
2022/11/03 10:30:49;;;;;;;;;;;15.10;99.90;;;;;;6245373;22;19920;-83
2022/11/03 10:33:32;;;;;;;;;;;15.10;99.90;;;;;;6244786;23;19919;-83
2022/11/03 10:36:03;;;;;;;;;;;15.10;99.90;;;;;;6244803;23;19930;-83
2022/11/03 10:38:32;;;;;;;;;;;16.80;99.90;;;;;;6246641;22;19923;-83
2022/11/03 10:41:17;;;;;;;;;;;15.30;99.90;;;;;;6244762;23;19927;-83
2022/11/03 10:43:43;;;;;;;;;;;15.10;99.90;;;;;;6245108;23;19927;-83
2022/11/03 10:46:14;;;;;;;;;;;15.10;99.90;;;;;;6244176;23;19924;-82
2022/11/03 10:48:39;;;;;;;;;;;18.00;99.90;;;;;;6219438;23;19963;-83
2022/11/03 10:51:08;;;;;;;;;;;17.30;99.90;;;;;;6264020;22;19919;-83
2022/11/03 10:53:33;;;;;;;;;;;15.20;99.90;;;;;;6250416;22;19989;-83
2022/11/03 10:55:59;;;;;;;;;;;18.60;99.90;;;;;;6278928;22;19930;-83
2022/11/03 10:58:24;;;;;;;;;;;16.90;99.90;;;;;;6251967;22;19919;-83
2022/11/03 11:00:50;;;;;;;;;;;16.30;99.90;;;;;;6225921;22;20350;-83
2022/11/03 11:03:15;;;;;;;;;;;16.00;99.90;;;;;;6278036;22;19923;-84
2022/11/03 11:05:45;;;;;;;;;;;18.70;99.90;;;;;;6226161;22;19994;-83
2022/11/03 11:08:12;;;;;;;;;;;15.60;99.90;;;;;;6226290;22;19985;-83
2022/11/03 11:10:42;;;;;;;;;;;17.80;99.90;;;;;;6250092;22;20247;-83
2022/11/03 11:13:17;;;;;;;;;;;19.40;99.90;;;;;;6277005;22;19923;-83
2022/11/03 11:15:50;;;;;;;;;;;15.90;99.90;;;;;;6278509;22;19919;-83
2022/11/03 11:18:28;;;;;;;;;;;18.70;99.90;;;;;;6251009;22;20328;-83
2022/11/03 11:20:56;;;;;;;;;;;15.80;99.90;;;;;;6251079;22;19923;-83
2022/11/03 11:23:25;;;;;;;;;;;15.80;99.90;;;;;;6278436;22;19926;-83
2022/11/03 11:26:04;;;;;;;;;;;15.60;99.90;;;;;;6278150;22;19947;-83
2022/11/03 11:28:30;;;;;;;;;;;15.60;99.90;;;;;;6251170;22;20339;-83
2022/11/03 11:30:58;;;;;;;;;;;15.60;99.90;;;;;;6251727;22;19969;-82
2022/11/03 11:33:27;;;;;;;;;;;15.50;99.90;;;;;;6250892;22;19915;-83
2022/11/03 11:35:53;;;;;;;;;;;15.40;99.90;;;;;;6277672;22;19923;-83
2022/11/03 11:38:37;;;;;;;;;;;15.40;99.90;;;;;;6249104;22;20294;-84
2022/11/03 11:41:03;;;;;;;;;;;15.30;99.90;;;;;;6275937;22;19970;-84
2022/11/03 11:43:28;;;;;;;;;;;15.30;99.90;;;;;;6199182;22;19915;-84
2022/11/03 11:46:13;;;;;;;;;;;15.30;99.90;;;;;;6276336;22;19930;-84
2022/11/03 11:48:38;;;;;;;;;;;15.50;99.90;;;;;;6248602;22;19998;-84
2022/11/03 11:51:08;;;;;;;;;;;16.10;99.90;;;;;;6222822;22;19997;-83
2022/11/03 11:53:38;;;;;;;;;;;15.20;99.90;;;;;;6223536;22;19973;-84
2022/11/03 11:56:04;;;;;;;;;;;15.20;99.90;;;;;;6276717;22;19919;-84
2022/11/03 11:58:47;;;;;;;;;;;15.20;99.90;;;;;;6249595;22;19930;-84
2022/11/03 12:01:26;;;;;;;;;;;15.50;99.90;;;;;;6224728;22;19954;-83
2022/11/03 12:03:54;;;;;;;;;;;15.00;99.90;;;;;;6251065;22;19915;-83
2022/11/03 12:06:36;;;;;;;;;;;15.00;99.90;;;;;;6251518;22;19957;-84
2022/11/03 12:09:13;;;;;;;;;;;11.80;99.90;;;;;;6250768;22;19920;-82
2022/11/03 12:11:43;;;;;;;;;;;15.00;99.90;;;;;;6250979;22;19926;-82
2022/11/03 12:14:27;;;;;;;;;;;14.50;99.90;;;;;;6250866;22;19976;-82
2022/11/03 12:16:53;;;;;;;;;;;11.60;99.90;;;;;;6251211;22;20252;-83
2022/11/03 12:19:31;;;;;;;;;;;15.10;99.90;;;;;;6250599;22;19919;-83
2022/11/03 12:21:57;;;;;;;;;;;14.90;99.90;;;;;;6225302;22;19926;-83
2022/11/03 12:24:36;;;;;;;;;;;14.90;99.90;;;;;;6249822;22;19920;-83
2022/11/03 12:27:22;;;;;;;;;;;14.90;99.90;;;;;;6249236;22;19925;-83
2022/11/03 12:29:48;;;;;;;;;;;14.90;99.90;;;;;;6198437;22;19923;-83
2022/11/03 12:32:17;;;;;;;;;;;17.50;99.90;;;;;;6250968;22;19919;-83
2022/11/03 12:34:43;;;;;;;;;;;12.60;99.90;;;;;;6224586;22;19920;-83
2022/11/03 12:37:08;;;;;;;;;;;17.90;99.90;;;;;;6224988;22;20307;-83
2022/11/03 12:39:34;;;;;;;;;;;14.60;99.90;;;;;;6250272;22;20304;-83
2022/11/03 12:42:00;;;;;;;;;;;14.90;99.90;;;;;;6277746;22;19919;-83
2022/11/03 12:44:25;;;;;;;;;;;18.80;99.90;;;;;;6224887;22;19930;-83
2022/11/03 12:46:51;;;;;;;;;;;15.00;99.90;;;;;;6225243;22;19919;-83
2022/11/03 12:49:20;;;;;;;;;;;18.30;99.90;;;;;;6251003;22;20329;-83
2022/11/03 12:51:45;;;;;;;;;;;14.90;99.90;;;;;;6224483;22;19920;-82
2022/11/03 12:54:11;;;;;;;;;;;15.50;99.90;;;;;;6224475;22;19994;-84
2022/11/03 12:56:36;;;;;;;;;;;15.00;99.90;;;;;;6250418;22;19998;-83
2022/11/03 12:59:02;;;;;;;;;;;12.30;99.90;;;;;;6224457;22;20340;-83
2022/11/03 13:01:27;;;;;;;;;;;15.10;99.90;;;;;;6224398;22;20367;-83
2022/11/03 13:03:53;;;;;;;;;;;15.10;99.90;;;;;;6277170;22;19964;-83
2022/11/03 13:06:20;;;;;;;;;;;15.10;99.90;;;;;;6249509;22;19954;-83
2022/11/03 13:08:46;;;;;;;;;;;15.20;99.90;;;;;;6275701;22;19999;-83
2022/11/03 13:13:58;;;;;;;;;;;15.30;99.90;;;;;;6276798;22;19919;-83
2022/11/03 13:16:24;;;;;;;;;;;15.40;99.90;;;;;;6276913;22;20411;-83
2022/11/03 13:18:49;;;;;;;;;;;17.90;99.90;;;;;;6276853;22;19923;-84
2022/11/03 13:21:16;;;;;;;;;;;18.40;99.90;;;;;;6276845;22;19994;-83
2022/11/03 13:23:45;;;;;;;;;;;15.40;99.90;;;;;;6250502;22;19919;-83
2022/11/03 13:26:10;;;;;;;;;;;15.80;99.90;;;;;;6222696;22;19920;-83
2022/11/03 13:28:36;;;;;;;;;;;16.50;99.90;;;;;;6249375;22;20264;-83
2022/11/03 13:31:03;;;;;;;;;;;15.60;99.90;;;;;;6224268;22;20335;-83
2022/11/03 13:33:28;;;;;;;;;;;15.50;99.90;;;;;;6276982;22;19925;-83
2022/11/03 13:35:54;;;;;;;;;;;15.60;99.90;;;;;;6249041;22;20006;-83
2022/11/03 13:38:20;;;;;;;;;;;18.20;99.90;;;;;;6248869;22;19926;-83
2022/11/03 13:40:45;;;;;;;;;;;15.50;99.90;;;;;;6222132;22;20648;-83
2022/11/03 13:43:11;;;;;;;;;;;15.50;99.90;;;;;;6248878;22;20251;-83
2022/11/03 13:45:37;;;;;;;;;;;15.40;99.90;;;;;;6276873;22;19930;-83
2022/11/03 13:48:02;;;;;;;;;;;15.40;99.90;;;;;;6249810;22;19920;-83
2022/11/03 13:50:28;;;;;;;;;;;15.40;99.90;;;;;;6248841;22;20369;-83
2022/11/03 13:52:58;;;;;;;;;;;15.40;99.90;;;;;;6277021;22;19919;-83
2022/11/03 13:55:23;;;;;;;;;;;15.30;99.90;;;;;;6224548;22;19926;-83
2022/11/03 13:57:51;;;;;;;;;;;15.30;99.90;;;;;;6250278;22;20248;-83
2022/11/03 14:00:17;;;;;;;;;;;15.20;99.90;;;;;;6250057;22;19947;-83
2022/11/03 14:02:49;;;;;;;;;;;15.20;99.90;;;;;;6225310;22;19919;-83
2022/11/03 14:05:19;;;;;;;;;;;15.60;99.90;;;;;;6276766;22;19947;-83
2022/11/03 14:07:45;;;;;;;;;;;15.50;99.90;;;;;;6249222;22;19919;-83
2022/11/03 14:10:10;;;;;;;;;;;15.10;99.90;;;;;;6224470;22;19926;-83
2022/11/03 14:12:36;;;;;;;;;;;17.90;99.90;;;;;;6249784;22;19968;-83
2022/11/03 14:15:07;;;;;;;;;;;15.00;99.90;;;;;;6249976;22;19950;-83
2022/11/03 14:17:33;;;;;;;;;;;15.00;99.90;;;;;;6224179;22;20026;-83
2022/11/03 14:19:59;;;;;;;;;;;14.90;99.90;;;;;;6249242;22;19919;-84
2022/11/03 14:22:29;;;;;;;;;;;15.40;99.90;;;;;;6249160;22;20255;-83
2022/11/03 14:24:54;;;;;;;;;;;14.80;99.90;;;;;;6248396;22;20354;-82
2022/11/03 14:27:29;;;;;;;;;;;15.40;99.90;;;;;;6277154;22;19919;-83
2022/11/03 14:29:55;;;;;;;;;;;18.60;99.90;;;;;;6278186;22;20006;-83
2022/11/03 14:32:23;;;;;;;;;;;17.60;99.90;;;;;;6252412;22;19919;-83
2022/11/03 14:34:48;;;;;;;;;;;16.60;99.90;;;;;;6251852;22;19969;-83
2022/11/03 14:37:14;;;;;;;;;;;11.00;99.90;;;;;;6226196;22;20409;-83
2022/11/03 14:39:43;;;;;;;;;;;18.80;99.90;;;;;;6252348;22;19925;-83
2022/11/03 14:42:16;;;;;;;;;;;14.90;99.90;;;;;;6225018;22;19920;-83
2022/11/03 14:44:42;;;;;;;;;;;16.50;99.90;;;;;;6225973;22;19926;-83